sensor_id;sensor_type;location;lat;lon;timestamp;P1;durP1;ratioP1;P2;durP2;ratioP2
75810;SDS011;64449;50.016;19.954;2023-04-29T00:01:18;12.30;;;8.00;;
75810;SDS011;64449;50.016;19.954;2023-04-29T00:03:44;12.60;;;8.30;;
75810;SDS011;64449;50.016;19.954;2023-04-29T00:06:10;16.00;;;9.30;;
75810;SDS011;64449;50.016;19.954;2023-04-29T00:08:35;11.40;;;7.50;;
75810;SDS011;64449;50.016;19.954;2023-04-29T00:11:01;14.80;;;8.10;;
75810;SDS011;64449;50.016;19.954;2023-04-29T00:13:27;14.60;;;8.70;;
75810;SDS011;64449;50.016;19.954;2023-04-29T00:15:53;16.00;;;9.00;;
75810;SDS011;64449;50.016;19.954;2023-04-29T00:18:18;13.50;;;9.30;;
75810;SDS011;64449;50.016;19.954;2023-04-29T00:20:44;13.90;;;8.90;;
75810;SDS011;64449;50.016;19.954;2023-04-29T00:23:09;11.00;;;8.10;;
75810;SDS011;64449;50.016;19.954;2023-04-29T00:25:35;15.20;;;10.40;;
75810;SDS011;64449;50.016;19.954;2023-04-29T00:28:02;15.30;;;8.20;;
75810;SDS011;64449;50.016;19.954;2023-04-29T00:30:28;16.80;;;9.30;;
75810;SDS011;64449;50.016;19.954;2023-04-29T00:32:54;13.90;;;9.00;;
75810;SDS011;64449;50.016;19.954;2023-04-29T00:35:19;18.20;;;8.60;;
75810;SDS011;64449;50.016;19.954;2023-04-29T00:37:45;12.00;;;7.70;;
75810;SDS011;64449;50.016;19.954;2023-04-29T00:40:11;17.20;;;8.80;;
75810;SDS011;64449;50.016;19.954;2023-04-29T00:42:39;13.30;;;8.00;;
75810;SDS011;64449;50.016;19.954;2023-04-29T00:45:06;16.90;;;8.50;;
75810;SDS011;64449;50.016;19.954;2023-04-29T00:47:32;15.50;;;9.30;;
75810;SDS011;64449;50.016;19.954;2023-04-29T00:49:58;14.50;;;9.30;;
75810;SDS011;64449;50.016;19.954;2023-04-29T00:52:24;16.40;;;10.30;;
75810;SDS011;64449;50.016;19.954;2023-04-29T00:54:51;13.30;;;9.00;;
75810;SDS011;64449;50.016;19.954;2023-04-29T00:57:18;16.10;;;8.70;;
75810;SDS011;64449;50.016;19.954;2023-04-29T00:59:43;17.30;;;8.90;;
75810;SDS011;64449;50.016;19.954;2023-04-29T01:02:10;13.70;;;9.60;;
75810;SDS011;64449;50.016;19.954;2023-04-29T01:04:36;16.40;;;10.10;;
75810;SDS011;64449;50.016;19.954;2023-04-29T01:17:50;13.80;;;8.70;;
75810;SDS011;64449;50.016;19.954;2023-04-29T01:20:37;13.70;;;9.60;;
75810;SDS011;64449;50.016;19.954;2023-04-29T01:23:04;18.20;;;9.80;;
75810;SDS011;64449;50.016;19.954;2023-04-29T01:25:29;15.20;;;9.20;;
75810;SDS011;64449;50.016;19.954;2023-04-29T01:30:44;13.50;;;9.70;;
75810;SDS011;64449;50.016;19.954;2023-04-29T01:33:16;16.60;;;10.80;;
75810;SDS011;64449;50.016;19.954;2023-04-29T01:38:16;14.50;;;8.90;;
75810;SDS011;64449;50.016;19.954;2023-04-29T01:43:34;13.70;;;8.90;;
75810;SDS011;64449;50.016;19.954;2023-04-29T01:46:05;15.30;;;9.10;;
75810;SDS011;64449;50.016;19.954;2023-04-29T01:48:33;14.70;;;9.10;;
75810;SDS011;64449;50.016;19.954;2023-04-29T01:50:59;13.30;;;9.20;;
75810;SDS011;64449;50.016;19.954;2023-04-29T01:53:25;16.50;;;9.30;;
75810;SDS011;64449;50.016;19.954;2023-04-29T01:55:51;19.40;;;10.80;;
75810;SDS011;64449;50.016;19.954;2023-04-29T01:58:16;15.20;;;9.90;;
75810;SDS011;64449;50.016;19.954;2023-04-29T02:00:42;16.10;;;11.30;;
75810;SDS011;64449;50.016;19.954;2023-04-29T02:03:07;16.30;;;10.80;;
75810;SDS011;64449;50.016;19.954;2023-04-29T02:05:33;19.50;;;11.80;;
75810;SDS011;64449;50.016;19.954;2023-04-29T02:07:58;25.30;;;12.80;;
75810;SDS011;64449;50.016;19.954;2023-04-29T02:10:25;18.50;;;12.50;;
75810;SDS011;64449;50.016;19.954;2023-04-29T02:12:51;21.80;;;13.10;;
75810;SDS011;64449;50.016;19.954;2023-04-29T02:15:17;20.90;;;12.70;;
75810;SDS011;64449;50.016;19.954;2023-04-29T02:17:42;20.40;;;14.70;;
75810;SDS011;64449;50.016;19.954;2023-04-29T02:20:08;19.70;;;13.30;;
75810;SDS011;64449;50.016;19.954;2023-04-29T02:22:34;21.60;;;14.40;;
75810;SDS011;64449;50.016;19.954;2023-04-29T02:25:00;21.00;;;13.60;;
75810;SDS011;64449;50.016;19.954;2023-04-29T02:27:25;22.30;;;13.50;;
75810;SDS011;64449;50.016;19.954;2023-04-29T02:29:51;20.50;;;13.20;;
75810;SDS011;64449;50.016;19.954;2023-04-29T02:32:16;21.70;;;15.20;;
75810;SDS011;64449;50.016;19.954;2023-04-29T02:34:44;19.60;;;13.30;;
75810;SDS011;64449;50.016;19.954;2023-04-29T02:37:10;23.30;;;13.30;;
75810;SDS011;64449;50.016;19.954;2023-04-29T02:39:35;18.70;;;11.80;;
75810;SDS011;64449;50.016;19.954;2023-04-29T02:42:01;21.70;;;12.70;;
75810;SDS011;64449;50.016;19.954;2023-04-29T02:44:27;17.20;;;11.70;;
75810;SDS011;64449;50.016;19.954;2023-04-29T02:46:53;20.50;;;12.30;;
75810;SDS011;64449;50.016;19.954;2023-04-29T02:49:18;19.60;;;12.50;;
75810;SDS011;64449;50.016;19.954;2023-04-29T02:51:44;21.70;;;12.40;;
75810;SDS011;64449;50.016;19.954;2023-04-29T02:54:09;21.70;;;12.50;;
75810;SDS011;64449;50.016;19.954;2023-04-29T02:56:35;18.60;;;12.20;;
75810;SDS011;64449;50.016;19.954;2023-04-29T02:59:01;16.40;;;12.50;;
75810;SDS011;64449;50.016;19.954;2023-04-29T03:01:27;16.90;;;11.30;;
75810;SDS011;64449;50.016;19.954;2023-04-29T03:03:53;19.10;;;11.70;;
75810;SDS011;64449;50.016;19.954;2023-04-29T03:06:19;20.30;;;12.30;;
75810;SDS011;64449;50.016;19.954;2023-04-29T03:08:45;17.60;;;11.70;;
75810;SDS011;64449;50.016;19.954;2023-04-29T03:11:10;20.00;;;12.50;;
75810;SDS011;64449;50.016;19.954;2023-04-29T03:13:36;19.50;;;11.30;;
75810;SDS011;64449;50.016;19.954;2023-04-29T03:16:02;21.30;;;12.00;;
75810;SDS011;64449;50.016;19.954;2023-04-29T03:18:28;16.50;;;12.00;;
75810;SDS011;64449;50.016;19.954;2023-04-29T03:20:53;16.60;;;11.10;;
75810;SDS011;64449;50.016;19.954;2023-04-29T03:23:19;17.60;;;10.90;;
75810;SDS011;64449;50.016;19.954;2023-04-29T03:25:45;14.10;;;10.40;;
75810;SDS011;64449;50.016;19.954;2023-04-29T03:28:10;16.10;;;10.30;;
75810;SDS011;64449;50.016;19.954;2023-04-29T03:30:35;13.50;;;9.20;;
75810;SDS011;64449;50.016;19.954;2023-04-29T03:33:01;16.10;;;10.10;;
75810;SDS011;64449;50.016;19.954;2023-04-29T03:35:26;16.60;;;10.20;;
75810;SDS011;64449;50.016;19.954;2023-04-29T03:37:51;15.50;;;9.90;;
75810;SDS011;64449;50.016;19.954;2023-04-29T03:40:17;16.80;;;10.20;;
75810;SDS011;64449;50.016;19.954;2023-04-29T03:42:42;16.60;;;9.80;;
75810;SDS011;64449;50.016;19.954;2023-04-29T03:45:08;18.50;;;10.10;;
75810;SDS011;64449;50.016;19.954;2023-04-29T03:47:37;14.60;;;9.50;;
75810;SDS011;64449;50.016;19.954;2023-04-29T03:50:02;15.90;;;10.10;;
75810;SDS011;64449;50.016;19.954;2023-04-29T03:52:28;14.60;;;9.40;;
75810;SDS011;64449;50.016;19.954;2023-04-29T03:54:54;14.70;;;10.40;;
75810;SDS011;64449;50.016;19.954;2023-04-29T03:57:19;16.00;;;9.10;;
75810;SDS011;64449;50.016;19.954;2023-04-29T03:59:45;15.60;;;9.80;;
75810;SDS011;64449;50.016;19.954;2023-04-29T04:02:14;14.00;;;10.30;;
75810;SDS011;64449;50.016;19.954;2023-04-29T04:04:40;16.50;;;9.60;;
75810;SDS011;64449;50.016;19.954;2023-04-29T04:07:06;14.30;;;10.20;;
75810;SDS011;64449;50.016;19.954;2023-04-29T04:09:32;17.90;;;10.80;;
75810;SDS011;64449;50.016;19.954;2023-04-29T04:11:57;16.70;;;10.60;;
75810;SDS011;64449;50.016;19.954;2023-04-29T04:14:24;18.40;;;11.30;;
75810;SDS011;64449;50.016;19.954;2023-04-29T04:16:49;14.40;;;10.10;;
75810;SDS011;64449;50.016;19.954;2023-04-29T04:19:15;19.50;;;10.70;;
75810;SDS011;64449;50.016;19.954;2023-04-29T04:21:41;19.30;;;11.70;;
75810;SDS011;64449;50.016;19.954;2023-04-29T04:24:06;16.50;;;12.00;;
75810;SDS011;64449;50.016;19.954;2023-04-29T04:26:32;26.50;;;16.40;;
75810;SDS011;64449;50.016;19.954;2023-04-29T04:28:58;32.90;;;21.20;;
75810;SDS011;64449;50.016;19.954;2023-04-29T04:31:23;40.30;;;27.30;;
75810;SDS011;64449;50.016;19.954;2023-04-29T04:33:49;27.40;;;17.10;;
75810;SDS011;64449;50.016;19.954;2023-04-29T04:36:15;23.10;;;14.10;;
75810;SDS011;64449;50.016;19.954;2023-04-29T04:38:40;23.50;;;15.20;;
75810;SDS011;64449;50.016;19.954;2023-04-29T04:41:06;21.50;;;13.70;;
75810;SDS011;64449;50.016;19.954;2023-04-29T04:43:32;18.60;;;11.80;;
75810;SDS011;64449;50.016;19.954;2023-04-29T04:45:57;18.00;;;12.70;;
75810;SDS011;64449;50.016;19.954;2023-04-29T04:48:23;20.80;;;14.20;;
75810;SDS011;64449;50.016;19.954;2023-04-29T04:50:48;22.80;;;14.80;;
75810;SDS011;64449;50.016;19.954;2023-04-29T04:53:14;24.50;;;14.80;;
75810;SDS011;64449;50.016;19.954;2023-04-29T04:55:39;21.60;;;15.20;;
75810;SDS011;64449;50.016;19.954;2023-04-29T04:58:05;26.40;;;16.10;;
75810;SDS011;64449;50.016;19.954;2023-04-29T05:00:30;23.00;;;14.60;;
75810;SDS011;64449;50.016;19.954;2023-04-29T05:02:55;28.10;;;15.40;;
75810;SDS011;64449;50.016;19.954;2023-04-29T05:05:21;21.10;;;14.80;;
75810;SDS011;64449;50.016;19.954;2023-04-29T05:07:46;24.00;;;14.40;;
75810;SDS011;64449;50.016;19.954;2023-04-29T05:10:12;21.90;;;14.20;;
75810;SDS011;64449;50.016;19.954;2023-04-29T05:12:37;21.50;;;14.60;;
75810;SDS011;64449;50.016;19.954;2023-04-29T05:15:03;22.10;;;14.60;;
75810;SDS011;64449;50.016;19.954;2023-04-29T05:17:28;22.10;;;13.60;;
75810;SDS011;64449;50.016;19.954;2023-04-29T05:19:54;22.80;;;15.70;;
75810;SDS011;64449;50.016;19.954;2023-04-29T05:22:20;25.70;;;15.40;;
75810;SDS011;64449;50.016;19.954;2023-04-29T05:24:45;25.50;;;16.60;;
75810;SDS011;64449;50.016;19.954;2023-04-29T05:27:12;29.80;;;19.90;;
75810;SDS011;64449;50.016;19.954;2023-04-29T05:29:38;31.00;;;16.30;;
75810;SDS011;64449;50.016;19.954;2023-04-29T05:32:04;30.20;;;18.00;;
75810;SDS011;64449;50.016;19.954;2023-04-29T05:34:29;19.80;;;12.50;;
75810;SDS011;64449;50.016;19.954;2023-04-29T05:36:55;21.90;;;14.50;;
75810;SDS011;64449;50.016;19.954;2023-04-29T05:39:21;19.80;;;13.10;;
75810;SDS011;64449;50.016;19.954;2023-04-29T05:41:47;15.00;;;10.40;;
75810;SDS011;64449;50.016;19.954;2023-04-29T05:44:12;13.90;;;10.10;;
75810;SDS011;64449;50.016;19.954;2023-04-29T05:46:38;15.80;;;10.90;;
75810;SDS011;64449;50.016;19.954;2023-04-29T05:49:03;16.70;;;11.10;;
75810;SDS011;64449;50.016;19.954;2023-04-29T05:51:29;17.30;;;11.50;;
75810;SDS011;64449;50.016;19.954;2023-04-29T05:53:55;21.50;;;11.50;;
75810;SDS011;64449;50.016;19.954;2023-04-29T05:56:23;21.00;;;12.80;;
75810;SDS011;64449;50.016;19.954;2023-04-29T05:58:48;19.70;;;12.50;;
75810;SDS011;64449;50.016;19.954;2023-04-29T06:01:14;21.50;;;15.30;;
75810;SDS011;64449;50.016;19.954;2023-04-29T06:03:42;20.00;;;13.60;;
75810;SDS011;64449;50.016;19.954;2023-04-29T06:06:08;10.50;;;7.70;;
75810;SDS011;64449;50.016;19.954;2023-04-29T06:08:34;13.80;;;8.30;;
75810;SDS011;64449;50.016;19.954;2023-04-29T06:11:00;16.20;;;10.20;;
75810;SDS011;64449;50.016;19.954;2023-04-29T06:13:26;12.10;;;8.70;;
75810;SDS011;64449;50.016;19.954;2023-04-29T06:15:51;11.00;;;7.00;;
75810;SDS011;64449;50.016;19.954;2023-04-29T06:18:16;10.20;;;7.10;;
75810;SDS011;64449;50.016;19.954;2023-04-29T06:20:42;9.40;;;7.00;;
75810;SDS011;64449;50.016;19.954;2023-04-29T06:23:07;8.70;;;6.10;;
75810;SDS011;64449;50.016;19.954;2023-04-29T06:25:33;9.60;;;6.70;;
75810;SDS011;64449;50.016;19.954;2023-04-29T06:27:58;17.50;;;11.10;;
75810;SDS011;64449;50.016;19.954;2023-04-29T06:30:25;18.10;;;13.80;;
75810;SDS011;64449;50.016;19.954;2023-04-29T06:32:50;21.60;;;14.30;;
75810;SDS011;64449;50.016;19.954;2023-04-29T06:35:16;20.90;;;14.90;;
75810;SDS011;64449;50.016;19.954;2023-04-29T06:37:41;21.90;;;13.80;;
75810;SDS011;64449;50.016;19.954;2023-04-29T06:40:07;22.90;;;14.60;;
75810;SDS011;64449;50.016;19.954;2023-04-29T06:42:33;14.20;;;9.40;;
75810;SDS011;64449;50.016;19.954;2023-04-29T06:44:58;11.70;;;6.60;;
75810;SDS011;64449;50.016;19.954;2023-04-29T06:47:24;11.20;;;6.90;;
75810;SDS011;64449;50.016;19.954;2023-04-29T06:49:50;14.10;;;8.90;;
75810;SDS011;64449;50.016;19.954;2023-04-29T06:52:17;12.30;;;7.50;;
75810;SDS011;64449;50.016;19.954;2023-04-29T06:54:43;8.60;;;5.60;;
75810;SDS011;64449;50.016;19.954;2023-04-29T06:57:08;7.20;;;4.00;;
75810;SDS011;64449;50.016;19.954;2023-04-29T06:59:34;8.30;;;3.60;;
75810;SDS011;64449;50.016;19.954;2023-04-29T07:01:59;7.20;;;3.40;;
75810;SDS011;64449;50.016;19.954;2023-04-29T07:04:25;6.10;;;3.30;;
75810;SDS011;64449;50.016;19.954;2023-04-29T07:06:50;6.10;;;3.10;;
75810;SDS011;64449;50.016;19.954;2023-04-29T07:09:18;6.00;;;3.40;;
75810;SDS011;64449;50.016;19.954;2023-04-29T07:11:43;6.40;;;4.20;;
75810;SDS011;64449;50.016;19.954;2023-04-29T07:14:09;5.20;;;3.00;;
75810;SDS011;64449;50.016;19.954;2023-04-29T07:16:34;6.80;;;3.80;;
75810;SDS011;64449;50.016;19.954;2023-04-29T07:18:59;8.60;;;5.80;;
75810;SDS011;64449;50.016;19.954;2023-04-29T07:21:25;7.40;;;5.40;;
75810;SDS011;64449;50.016;19.954;2023-04-29T07:23:51;6.50;;;3.10;;
75810;SDS011;64449;50.016;19.954;2023-04-29T07:26:16;4.60;;;2.90;;
75810;SDS011;64449;50.016;19.954;2023-04-29T07:28:43;7.80;;;3.30;;
75810;SDS011;64449;50.016;19.954;2023-04-29T07:31:09;4.40;;;2.60;;
75810;SDS011;64449;50.016;19.954;2023-04-29T07:33:36;5.60;;;2.90;;
75810;SDS011;64449;50.016;19.954;2023-04-29T07:36:02;5.80;;;2.70;;
75810;SDS011;64449;50.016;19.954;2023-04-29T07:38:28;4.40;;;3.20;;
75810;SDS011;64449;50.016;19.954;2023-04-29T07:40:53;5.30;;;3.00;;
75810;SDS011;64449;50.016;19.954;2023-04-29T07:43:20;4.70;;;2.90;;
75810;SDS011;64449;50.016;19.954;2023-04-29T07:45:46;5.40;;;2.70;;
75810;SDS011;64449;50.016;19.954;2023-04-29T07:48:12;6.20;;;3.10;;
75810;SDS011;64449;50.016;19.954;2023-04-29T07:50:37;6.60;;;3.20;;
75810;SDS011;64449;50.016;19.954;2023-04-29T07:53:03;5.80;;;3.30;;
75810;SDS011;64449;50.016;19.954;2023-04-29T07:55:29;4.60;;;2.80;;
75810;SDS011;64449;50.016;19.954;2023-04-29T07:57:55;5.00;;;2.90;;
75810;SDS011;64449;50.016;19.954;2023-04-29T08:00:21;4.20;;;3.00;;
75810;SDS011;64449;50.016;19.954;2023-04-29T08:02:50;5.40;;;3.10;;
75810;SDS011;64449;50.016;19.954;2023-04-29T08:05:17;4.90;;;2.90;;
75810;SDS011;64449;50.016;19.954;2023-04-29T08:07:44;6.60;;;4.10;;
75810;SDS011;64449;50.016;19.954;2023-04-29T08:10:09;5.60;;;2.90;;
75810;SDS011;64449;50.016;19.954;2023-04-29T08:12:35;5.10;;;2.80;;
75810;SDS011;64449;50.016;19.954;2023-04-29T08:15:00;6.00;;;3.00;;
75810;SDS011;64449;50.016;19.954;2023-04-29T08:17:26;5.60;;;3.60;;
75810;SDS011;64449;50.016;19.954;2023-04-29T08:19:52;8.30;;;3.10;;
75810;SDS011;64449;50.016;19.954;2023-04-29T08:22:17;5.90;;;3.30;;
75810;SDS011;64449;50.016;19.954;2023-04-29T08:24:42;4.90;;;3.40;;
75810;SDS011;64449;50.016;19.954;2023-04-29T08:27:09;7.10;;;4.10;;
75810;SDS011;64449;50.016;19.954;2023-04-29T08:29:35;6.50;;;3.90;;
75810;SDS011;64449;50.016;19.954;2023-04-29T08:32:01;5.30;;;2.90;;
75810;SDS011;64449;50.016;19.954;2023-04-29T08:34:26;7.30;;;3.40;;
75810;SDS011;64449;50.016;19.954;2023-04-29T08:36:52;6.40;;;3.20;;
75810;SDS011;64449;50.016;19.954;2023-04-29T08:39:17;6.70;;;3.70;;
75810;SDS011;64449;50.016;19.954;2023-04-29T08:41:43;4.20;;;3.10;;
75810;SDS011;64449;50.016;19.954;2023-04-29T08:44:13;5.40;;;3.60;;
75810;SDS011;64449;50.016;19.954;2023-04-29T08:46:41;5.20;;;3.40;;
75810;SDS011;64449;50.016;19.954;2023-04-29T08:49:10;4.90;;;3.20;;
75810;SDS011;64449;50.016;19.954;2023-04-29T08:51:37;4.90;;;3.00;;
75810;SDS011;64449;50.016;19.954;2023-04-29T08:54:03;5.90;;;3.10;;
75810;SDS011;64449;50.016;19.954;2023-04-29T08:56:29;5.90;;;3.00;;
75810;SDS011;64449;50.016;19.954;2023-04-29T08:58:56;5.30;;;3.80;;
75810;SDS011;64449;50.016;19.954;2023-04-29T09:01:24;5.90;;;3.30;;
75810;SDS011;64449;50.016;19.954;2023-04-29T09:06:35;4.80;;;2.60;;
75810;SDS011;64449;50.016;19.954;2023-04-29T09:09:01;5.40;;;3.20;;
75810;SDS011;64449;50.016;19.954;2023-04-29T09:11:27;5.30;;;3.20;;
75810;SDS011;64449;50.016;19.954;2023-04-29T09:13:58;6.40;;;3.40;;
75810;SDS011;64449;50.016;19.954;2023-04-29T09:16:25;6.30;;;3.30;;
75810;SDS011;64449;50.016;19.954;2023-04-29T09:18:52;6.30;;;3.60;;
75810;SDS011;64449;50.016;19.954;2023-04-29T09:23:44;8.00;;;3.40;;
75810;SDS011;64449;50.016;19.954;2023-04-29T09:26:16;5.10;;;3.10;;
75810;SDS011;64449;50.016;19.954;2023-04-29T09:28:42;6.80;;;3.50;;
75810;SDS011;64449;50.016;19.954;2023-04-29T09:31:09;5.30;;;3.20;;
75810;SDS011;64449;50.016;19.954;2023-04-29T09:33:48;5.10;;;3.00;;
75810;SDS011;64449;50.016;19.954;2023-04-29T09:38:59;5.80;;;3.20;;
75810;SDS011;64449;50.016;19.954;2023-04-29T09:41:24;5.30;;;3.30;;
75810;SDS011;64449;50.016;19.954;2023-04-29T09:44:02;6.40;;;2.90;;
75810;SDS011;64449;50.016;19.954;2023-04-29T09:46:32;6.50;;;3.60;;
75810;SDS011;64449;50.016;19.954;2023-04-29T09:48:59;3.70;;;2.50;;
75810;SDS011;64449;50.016;19.954;2023-04-29T09:51:25;5.70;;;3.30;;
75810;SDS011;64449;50.016;19.954;2023-04-29T09:53:50;4.50;;;3.00;;
75810;SDS011;64449;50.016;19.954;2023-04-29T09:56:15;6.10;;;2.90;;
75810;SDS011;64449;50.016;19.954;2023-04-29T09:58:41;5.40;;;2.70;;
75810;SDS011;64449;50.016;19.954;2023-04-29T10:01:06;4.20;;;2.70;;
75810;SDS011;64449;50.016;19.954;2023-04-29T10:03:36;5.20;;;3.10;;
75810;SDS011;64449;50.016;19.954;2023-04-29T10:06:03;5.70;;;3.80;;
75810;SDS011;64449;50.016;19.954;2023-04-29T10:08:31;5.00;;;3.50;;
75810;SDS011;64449;50.016;19.954;2023-04-29T10:10:58;6.50;;;3.10;;
75810;SDS011;64449;50.016;19.954;2023-04-29T10:13:26;4.70;;;2.90;;
75810;SDS011;64449;50.016;19.954;2023-04-29T10:18:36;5.30;;;2.80;;
75810;SDS011;64449;50.016;19.954;2023-04-29T10:21:06;4.90;;;3.00;;
75810;SDS011;64449;50.016;19.954;2023-04-29T10:23:36;12.40;;;9.30;;
75810;SDS011;64449;50.016;19.954;2023-04-29T10:26:02;14.40;;;9.60;;
75810;SDS011;64449;50.016;19.954;2023-04-29T10:28:30;9.20;;;6.60;;
75810;SDS011;64449;50.016;19.954;2023-04-29T10:30:57;6.70;;;3.50;;
75810;SDS011;64449;50.016;19.954;2023-04-29T10:33:28;5.90;;;4.10;;
75810;SDS011;64449;50.016;19.954;2023-04-29T10:35:56;4.50;;;2.70;;
75810;SDS011;64449;50.016;19.954;2023-04-29T10:41:06;11.20;;;7.00;;
75810;SDS011;64449;50.016;19.954;2023-04-29T10:43:34;5.50;;;3.00;;
75810;SDS011;64449;50.016;19.954;2023-04-29T10:46:16;6.60;;;3.60;;
75810;SDS011;64449;50.016;19.954;2023-04-29T10:48:45;5.20;;;3.20;;
75810;SDS011;64449;50.016;19.954;2023-04-29T10:51:11;4.60;;;2.80;;
75810;SDS011;64449;50.016;19.954;2023-04-29T10:53:57;4.00;;;2.70;;
75810;SDS011;64449;50.016;19.954;2023-04-29T10:56:43;4.60;;;2.80;;
75810;SDS011;64449;50.016;19.954;2023-04-29T10:59:15;9.90;;;5.30;;
75810;SDS011;64449;50.016;19.954;2023-04-29T11:01:45;4.30;;;2.80;;
75810;SDS011;64449;50.016;19.954;2023-04-29T11:04:12;4.20;;;2.90;;
75810;SDS011;64449;50.016;19.954;2023-04-29T11:06:40;4.40;;;3.10;;
75810;SDS011;64449;50.016;19.954;2023-04-29T11:14:08;5.10;;;3.00;;
75810;SDS011;64449;50.016;19.954;2023-04-29T11:16:37;6.30;;;3.20;;
75810;SDS011;64449;50.016;19.954;2023-04-29T11:19:13;4.40;;;3.10;;
75810;SDS011;64449;50.016;19.954;2023-04-29T11:21:40;8.10;;;4.40;;
75810;SDS011;64449;50.016;19.954;2023-04-29T11:24:05;4.70;;;3.30;;
75810;SDS011;64449;50.016;19.954;2023-04-29T11:26:32;4.60;;;2.80;;
75810;SDS011;64449;50.016;19.954;2023-04-29T11:28:59;3.40;;;2.30;;
75810;SDS011;64449;50.016;19.954;2023-04-29T11:31:25;4.80;;;3.20;;
75810;SDS011;64449;50.016;19.954;2023-04-29T11:33:58;6.30;;;3.00;;
75810;SDS011;64449;50.016;19.954;2023-04-29T11:36:24;5.90;;;3.20;;
75810;SDS011;64449;50.016;19.954;2023-04-29T11:38:51;4.70;;;3.40;;
75810;SDS011;64449;50.016;19.954;2023-04-29T11:41:17;4.90;;;3.10;;
75810;SDS011;64449;50.016;19.954;2023-04-29T11:43:44;6.00;;;2.70;;
75810;SDS011;64449;50.016;19.954;2023-04-29T11:46:11;17.50;;;12.40;;
75810;SDS011;64449;50.016;19.954;2023-04-29T11:48:44;4.60;;;2.70;;
75810;SDS011;64449;50.016;19.954;2023-04-29T11:51:10;8.40;;;6.00;;
75810;SDS011;64449;50.016;19.954;2023-04-29T11:53:36;5.20;;;3.60;;
75810;SDS011;64449;50.016;19.954;2023-04-29T11:56:01;6.30;;;3.20;;
75810;SDS011;64449;50.016;19.954;2023-04-29T11:58:27;5.10;;;3.20;;
75810;SDS011;64449;50.016;19.954;2023-04-29T12:00:52;6.10;;;3.20;;
75810;SDS011;64449;50.016;19.954;2023-04-29T12:03:18;5.80;;;3.50;;
75810;SDS011;64449;50.016;19.954;2023-04-29T12:05:52;6.70;;;3.80;;
75810;SDS011;64449;50.016;19.954;2023-04-29T12:08:19;6.10;;;3.40;;
75810;SDS011;64449;50.016;19.954;2023-04-29T12:10:53;4.30;;;2.90;;
75810;SDS011;64449;50.016;19.954;2023-04-29T12:13:19;5.00;;;3.40;;
75810;SDS011;64449;50.016;19.954;2023-04-29T12:15:48;6.00;;;3.30;;
75810;SDS011;64449;50.016;19.954;2023-04-29T12:18:15;6.10;;;4.50;;
75810;SDS011;64449;50.016;19.954;2023-04-29T12:20:42;6.60;;;4.50;;
75810;SDS011;64449;50.016;19.954;2023-04-29T12:25:38;7.10;;;4.10;;
75810;SDS011;64449;50.016;19.954;2023-04-29T12:28:10;5.10;;;2.80;;
75810;SDS011;64449;50.016;19.954;2023-04-29T12:30:39;5.60;;;3.50;;
75810;SDS011;64449;50.016;19.954;2023-04-29T12:33:08;5.80;;;3.50;;
75810;SDS011;64449;50.016;19.954;2023-04-29T12:35:34;6.80;;;3.80;;
75810;SDS011;64449;50.016;19.954;2023-04-29T12:38:00;4.40;;;3.20;;
75810;SDS011;64449;50.016;19.954;2023-04-29T12:40:26;6.30;;;3.40;;
75810;SDS011;64449;50.016;19.954;2023-04-29T12:42:52;5.60;;;3.70;;
75810;SDS011;64449;50.016;19.954;2023-04-29T12:45:28;5.50;;;3.40;;
75810;SDS011;64449;50.016;19.954;2023-04-29T12:47:56;6.50;;;3.40;;
75810;SDS011;64449;50.016;19.954;2023-04-29T12:50:32;5.40;;;3.50;;
75810;SDS011;64449;50.016;19.954;2023-04-29T12:53:05;7.00;;;3.70;;
75810;SDS011;64449;50.016;19.954;2023-04-29T12:55:35;5.50;;;3.50;;
75810;SDS011;64449;50.016;19.954;2023-04-29T12:58:02;7.20;;;3.40;;
75810;SDS011;64449;50.016;19.954;2023-04-29T13:00:29;5.20;;;3.20;;
75810;SDS011;64449;50.016;19.954;2023-04-29T13:02:55;4.60;;;3.30;;
75810;SDS011;64449;50.016;19.954;2023-04-29T13:05:21;5.70;;;3.50;;
75810;SDS011;64449;50.016;19.954;2023-04-29T13:07:46;5.00;;;3.50;;
75810;SDS011;64449;50.016;19.954;2023-04-29T13:10:12;7.60;;;3.80;;
75810;SDS011;64449;50.016;19.954;2023-04-29T13:12:38;5.40;;;4.00;;
75810;SDS011;64449;50.016;19.954;2023-04-29T13:15:04;5.20;;;3.30;;
75810;SDS011;64449;50.016;19.954;2023-04-29T13:17:33;5.40;;;3.40;;
75810;SDS011;64449;50.016;19.954;2023-04-29T13:20:00;6.10;;;3.40;;
75810;SDS011;64449;50.016;19.954;2023-04-29T13:22:27;4.40;;;3.30;;
75810;SDS011;64449;50.016;19.954;2023-04-29T13:24:53;6.20;;;3.40;;
75810;SDS011;64449;50.016;19.954;2023-04-29T13:27:18;6.20;;;3.40;;
75810;SDS011;64449;50.016;19.954;2023-04-29T13:29:44;4.40;;;3.30;;
75810;SDS011;64449;50.016;19.954;2023-04-29T13:32:09;5.80;;;4.10;;
75810;SDS011;64449;50.016;19.954;2023-04-29T13:34:34;5.90;;;3.70;;
75810;SDS011;64449;50.016;19.954;2023-04-29T13:37:00;4.50;;;2.90;;
75810;SDS011;64449;50.016;19.954;2023-04-29T13:39:25;6.40;;;3.30;;
75810;SDS011;64449;50.016;19.954;2023-04-29T13:41:50;6.40;;;3.70;;
75810;SDS011;64449;50.016;19.954;2023-04-29T13:44:16;5.50;;;3.30;;
75810;SDS011;64449;50.016;19.954;2023-04-29T13:46:42;5.30;;;4.10;;
75810;SDS011;64449;50.016;19.954;2023-04-29T13:49:07;6.00;;;3.90;;
75810;SDS011;64449;50.016;19.954;2023-04-29T13:51:33;5.60;;;3.20;;
75810;SDS011;64449;50.016;19.954;2023-04-29T13:53:58;6.40;;;3.60;;
75810;SDS011;64449;50.016;19.954;2023-04-29T13:56:24;5.40;;;3.00;;
75810;SDS011;64449;50.016;19.954;2023-04-29T13:58:52;4.30;;;3.10;;
75810;SDS011;64449;50.016;19.954;2023-04-29T14:01:17;4.30;;;3.40;;
75810;SDS011;64449;50.016;19.954;2023-04-29T14:03:42;7.10;;;3.70;;
75810;SDS011;64449;50.016;19.954;2023-04-29T14:06:08;4.90;;;2.90;;
75810;SDS011;64449;50.016;19.954;2023-04-29T14:08:34;5.60;;;3.80;;
75810;SDS011;64449;50.016;19.954;2023-04-29T14:10:59;5.90;;;3.50;;
75810;SDS011;64449;50.016;19.954;2023-04-29T14:13:25;7.20;;;5.10;;
75810;SDS011;64449;50.016;19.954;2023-04-29T14:15:50;5.40;;;4.30;;
75810;SDS011;64449;50.016;19.954;2023-04-29T14:18:16;5.10;;;3.70;;
75810;SDS011;64449;50.016;19.954;2023-04-29T14:20:41;7.20;;;4.50;;
75810;SDS011;64449;50.016;19.954;2023-04-29T14:23:06;6.30;;;4.20;;
75810;SDS011;64449;50.016;19.954;2023-04-29T14:25:32;7.50;;;4.60;;
75810;SDS011;64449;50.016;19.954;2023-04-29T14:27:57;8.10;;;4.10;;
75810;SDS011;64449;50.016;19.954;2023-04-29T14:30:22;9.50;;;4.20;;
75810;SDS011;64449;50.016;19.954;2023-04-29T14:32:48;6.40;;;4.40;;
75810;SDS011;64449;50.016;19.954;2023-04-29T14:35:13;8.10;;;4.20;;
75810;SDS011;64449;50.016;19.954;2023-04-29T14:37:39;5.60;;;3.80;;
75810;SDS011;64449;50.016;19.954;2023-04-29T14:40:05;6.30;;;4.20;;
75810;SDS011;64449;50.016;19.954;2023-04-29T14:42:31;6.80;;;4.30;;
75810;SDS011;64449;50.016;19.954;2023-04-29T14:44:57;7.40;;;4.70;;
75810;SDS011;64449;50.016;19.954;2023-04-29T14:47:22;7.50;;;4.90;;
75810;SDS011;64449;50.016;19.954;2023-04-29T14:49:48;9.10;;;6.10;;
75810;SDS011;64449;50.016;19.954;2023-04-29T14:52:14;8.80;;;5.70;;
75810;SDS011;64449;50.016;19.954;2023-04-29T14:54:40;10.50;;;5.90;;
75810;SDS011;64449;50.016;19.954;2023-04-29T14:57:05;9.30;;;5.60;;
75810;SDS011;64449;50.016;19.954;2023-04-29T14:59:31;11.90;;;6.20;;